»·PEaware :: SWA904 KOAK-KSAN

SWA904 :: KOAK-KSAN

FLIGHT INFORMATION

Flight Status: Arrived
Operator:
Southwest Airlines
More flights by this operator :: More flights under this callsign
Pilot: Daniel W. (24238)
Aircraft: BOEING 737-700
(B737)
More flights by this aircraft type
Origin: KOAK Metro Oakland Intl
United States
Destination: KSAN San Diego Intl-Lindbergh
United States
More flights between these airports :: More routes between these airports
Route: +CNDEL4 YYUNG LAX COMIX2
File this flight plan on PilotEdge
Remarks: PBN / A1D1O1S2T1 NAV / RNVD1E1A1 RNP10 DOF / 200213 REG / N7854B EET / KZLA0026 CODE / AAA5FF PER / C
Altitude:
(Current/Filed)
39,000ft
Speed:
(Current/Filed)
449kts
Departed: 12-Feb-20 05:59 PM
Arrived: 12-Feb-20 07:05 PM
Distance/Time
Traveled:
387nm/1:06
Distance/Time
To Go:
Arrived

Flight Plot

Page will automatically refresh every two minutes.

Flight plan parsing failed; only flown route is shown


Map Options




Map Legend


Flown Route
Filed Route
Departure Airport
Arrival Airport
Navaid (VOR, NDB)
Fix

Horizontal Profiles

Position Reports

Time Latitude Longitude Heading Altitude Ground
Speed
12-Feb-20 17:13 37.711142 -122.215048 328 14ft 0kts
12-Feb-20 17:14 37.711142 -122.215048 328 14ft 0kts
12-Feb-20 17:15 37.711142 -122.215048 328 14ft 0kts
12-Feb-20 17:16 37.711142 -122.215048 328 14ft 0kts
12-Feb-20 17:17 37.711142 -122.215048 328 14ft 0kts
12-Feb-20 17:18 37.711142 -122.215048 328 14ft 0kts
12-Feb-20 17:19 37.711142 -122.215048 328 14ft 0kts
12-Feb-20 17:20 37.711142 -122.215048 328 14ft 0kts
12-Feb-20 17:21 37.711142 -122.215048 328 14ft 0kts
12-Feb-20 17:22 37.711142 -122.215048 328 14ft 0kts
12-Feb-20 17:23 37.711142 -122.215048 328 14ft 0kts
12-Feb-20 17:24 37.711142 -122.215048 328 14ft 0kts
12-Feb-20 17:25 37.711142 -122.215048 328 14ft 0kts
12-Feb-20 17:26 37.711142 -122.215048 328 14ft 0kts
12-Feb-20 17:27 37.711142 -122.215048 328 14ft 0kts
12-Feb-20 17:28 37.711142 -122.215048 328 14ft 0kts
12-Feb-20 17:29 37.711142 -122.215048 328 14ft 0kts
12-Feb-20 17:30 37.711142 -122.215048 328 14ft 0kts
12-Feb-20 17:31 37.711142 -122.215048 328 14ft 0kts
12-Feb-20 17:32 37.711142 -122.215048 328 14ft 0kts
12-Feb-20 17:33 37.711142 -122.215048 328 14ft 0kts
12-Feb-20 17:34 37.711142 -122.215048 328 14ft 0kts
12-Feb-20 17:35 37.711142 -122.215048 328 14ft 0kts
12-Feb-20 17:36 37.711142 -122.215048 328 14ft 0kts
12-Feb-20 17:37 37.711142 -122.215048 328 14ft 0kts
12-Feb-20 17:38 37.711142 -122.215048 328 14ft 0kts
12-Feb-20 17:39 37.711142 -122.215048 328 14ft 0kts
12-Feb-20 17:40 37.711142 -122.215048 328 14ft 0kts
12-Feb-20 17:41 37.711142 -122.215048 328 14ft 0kts
12-Feb-20 17:42 37.711142 -122.215048 328 14ft 0kts
12-Feb-20 17:43 37.711142 -122.215048 328 14ft 0kts
12-Feb-20 17:44 37.711142 -122.215048 328 14ft 0kts
12-Feb-20 17:45 37.711142 -122.215048 328 14ft 0kts
12-Feb-20 17:46 37.711142 -122.215048 328 14ft 0kts
12-Feb-20 17:47 37.711142 -122.215048 328 14ft 0kts
12-Feb-20 17:48 37.711142 -122.215048 328 14ft 0kts
12-Feb-20 17:49 37.711142 -122.215048 328 14ft 0kts
12-Feb-20 17:50 37.711142 -122.215048 328 14ft 0kts
12-Feb-20 17:51 37.710695 -122.214561 305 14ft 2kts
12-Feb-20 17:52 37.710538 -122.214125 277 14ft 0kts
12-Feb-20 17:53 37.710538 -122.214125 277 14ft 0kts
12-Feb-20 17:54 37.709468 -122.215270 216 14ft 2kts
12-Feb-20 17:55 37.707166 -122.217610 219 14ft 16kts
12-Feb-20 17:56 37.702851 -122.213633 160 14ft 13kts
12-Feb-20 17:57 37.701831 -122.214790 309 14ft 10kts
12-Feb-20 17:58 37.720555 -122.242571 309 827ft 162kts
12-Feb-20 17:59 37.755898 -122.295942 311 2088ft 242kts
12-Feb-20 18:00 37.795966 -122.369931 277 4429ft 270kts
12-Feb-20 18:01 37.745904 -122.433270 189 8079ft 290kts
12-Feb-20 18:02 37.661674 -122.445998 186 11343ft 335kts
12-Feb-20 18:03 37.562400 -122.462979 189 14486ft 373kts
12-Feb-20 18:04 37.457465 -122.481660 189 18005ft 392kts
12-Feb-20 18:05 37.347891 -122.500469 188 21205ft 409kts
12-Feb-20 18:06 37.239706 -122.455175 146 23808ft 431kts
12-Feb-20 18:07 37.137786 -122.370684 147 26141ft 447kts
12-Feb-20 18:08 37.032025 -122.284568 147 28201ft 460kts
12-Feb-20 18:09 36.923056 -122.195165 147 29913ft 473kts
12-Feb-20 18:10 36.816471 -122.107995 148 31247ft 486kts
12-Feb-20 18:11 36.702176 -122.014993 148 32640ft 494kts
12-Feb-20 18:12 36.586745 -121.921424 148 34089ft 495kts
12-Feb-20 18:13 36.471172 -121.828083 148 35378ft 497kts
12-Feb-20 18:14 36.354577 -121.734255 148 36556ft 499kts
12-Feb-20 18:15 36.237755 -121.640583 148 37629ft 500kts
12-Feb-20 18:16 36.120957 -121.547266 148 38592ft 501kts
12-Feb-20 18:17 36.003112 -121.453446 148 39092ft 503kts
12-Feb-20 18:18 35.885846 -121.360417 148 39087ft 502kts
12-Feb-20 18:19 35.768407 -121.267339 148 39084ft 502kts
12-Feb-20 18:20 35.650829 -121.174507 148 39085ft 501kts
12-Feb-20 18:21 35.534676 -121.079919 140 39094ft 502kts
12-Feb-20 18:22 35.445134 -120.949256 123 39099ft 502kts
12-Feb-20 18:23 35.364719 -120.809390 124 39107ft 502kts
12-Feb-20 18:24 35.283851 -120.670280 124 39117ft 502kts
12-Feb-20 18:25 35.202796 -120.531347 124 39120ft 502kts
12-Feb-20 18:26 35.121181 -120.392527 124 39122ft 502kts
12-Feb-20 18:28 35.039549 -120.254299 124 39123ft 502kts
12-Feb-20 18:29 34.957747 -120.116333 124 39120ft 502kts
12-Feb-20 18:30 34.875940 -119.978890 124 39114ft 502kts
12-Feb-20 18:31 34.793597 -119.841098 125 39113ft 502kts
12-Feb-20 18:32 34.711343 -119.703979 125 39118ft 502kts
12-Feb-20 18:33 34.628849 -119.566987 125 39124ft 502kts
12-Feb-20 18:34 34.546192 -119.430251 125 39123ft 502kts
12-Feb-20 18:35 34.463619 -119.294171 125 39126ft 502kts
12-Feb-20 18:36 34.380706 -119.158050 125 39129ft 502kts
12-Feb-20 18:37 34.297720 -119.022323 125 39129ft 501kts
12-Feb-20 18:38 34.214773 -118.887166 125 39130ft 501kts
12-Feb-20 18:39 34.131484 -118.751953 126 39131ft 501kts
12-Feb-20 18:40 34.051652 -118.622378 126 39131ft 500kts
12-Feb-20 18:41 33.968019 -118.487931 126 38691ft 503kts
12-Feb-20 18:42 33.878160 -118.359736 134 35810ft 501kts
12-Feb-20 18:43 33.783052 -118.237816 132 32568ft 498kts
12-Feb-20 18:44 33.694065 -118.120721 132 30018ft 479kts
12-Feb-20 18:45 33.605627 -118.005074 132 27552ft 459kts
12-Feb-20 18:46 33.519810 -117.896031 136 25136ft 442kts
12-Feb-20 18:47 33.432093 -117.795874 136 22771ft 428kts
12-Feb-20 18:47 33.358697 -117.717898 138 20831ft 417kts
12-Feb-20 18:49 33.259364 -117.612245 138 18184ft 403kts
12-Feb-20 18:50 33.176296 -117.524641 139 15783ft 393kts
12-Feb-20 18:50 33.106616 -117.457339 147 13887ft 381kts
12-Feb-20 18:51 33.020945 -117.386515 145 11589ft 367kts
12-Feb-20 18:52 32.942798 -117.321057 146 10523ft 301kts
12-Feb-20 18:53 32.879688 -117.268393 146 9550ft 270kts
12-Feb-20 18:54 32.819088 -117.216535 134 8103ft 266kts
12-Feb-20 18:55 32.794439 -117.135071 104 6645ft 262kts
12-Feb-20 18:56 32.776715 -117.054951 106 5947ft 229kts
12-Feb-20 18:57 32.759032 -116.985324 114 5177ft 207kts
12-Feb-20 18:58 32.718226 -116.953448 188 4282ft 172kts
12-Feb-20 18:59 32.688653 -116.990128 261 3538ft 166kts
12-Feb-20 19:00 32.697876 -117.042934 288 2675ft 160kts
12-Feb-20 19:01 32.709880 -117.092269 285 1845ft 148kts
12-Feb-20 19:02 32.720346 -117.135842 287 931ft 134kts
12-Feb-20 19:03 32.730763 -117.178129 286 78ft 128kts
12-Feb-20 19:04 32.733926 -117.194982 149 23ft 7kts
12-Feb-20 19:05 32.733732 -117.194671 122 23ft 0kts
12-Feb-20 19:06 32.733731 -117.194669 122 23ft 0kts
12-Feb-20 19:07 32.733365 -117.194328 167 23ft 10kts
12-Feb-20 19:08 32.732521 -117.195487 312 23ft 0kts
12-Feb-20 19:09 32.732521 -117.195487 312 23ft 0kts
12-Feb-20 19:10 32.732521 -117.195487 312 23ft 0kts
12-Feb-20 19:11 32.732521 -117.195487 312 23ft 0kts
12-Feb-20 19:12 32.732521 -117.195487 312 23ft 0kts
12-Feb-20 19:13 32.732521 -117.195487 312 23ft 0kts
12-Feb-20 19:14 32.732521 -117.195487 312 23ft 0kts
12-Feb-20 19:15 32.732521 -117.195487 312 23ft 0kts
12-Feb-20 19:16 32.732521 -117.195487 312 23ft 0kts
12-Feb-20 19:17 32.732521 -117.195487 312 23ft 0kts
12-Feb-20 19:18 32.732521 -117.195487 312 23ft 0kts
12-Feb-20 19:19 32.732521 -117.195487 312 23ft 0kts

Navigation Log

Ident Type
Flight plan parsing failed, navigation log unavailable